createdAt,value
2022-08-04T00:00:18.665Z,23.20
2022-08-04T00:03:07.216Z,22.87
2022-08-04T00:05:47.121Z,22.94
2022-08-04T00:08:49.863Z,22.80
2022-08-04T00:11:28.836Z,22.70
2022-08-04T00:14:04.736Z,22.72
2022-08-04T00:16:38.489Z,22.62
2022-08-04T00:19:42.086Z,22.70
2022-08-04T00:22:11.554Z,22.77
2022-08-04T00:24:39.502Z,22.71
2022-08-04T00:27:08.624Z,22.73
2022-08-04T00:29:39.341Z,22.66
2022-08-04T00:32:08.166Z,22.68
2022-08-04T00:34:36.217Z,22.60
2022-08-04T00:37:06.406Z,22.73
2022-08-04T00:39:33.862Z,22.74
2022-08-04T00:42:14.202Z,22.68
2022-08-04T00:44:58.386Z,22.77
2022-08-04T00:48:02.838Z,22.76
2022-08-04T00:50:35.742Z,22.67
2022-08-04T00:53:13.626Z,22.56
2022-08-04T00:55:49.213Z,22.62
2022-08-04T00:58:42.820Z,22.40
2022-08-04T01:01:31.370Z,22.37
2022-08-04T01:04:16.097Z,22.36
2022-08-04T01:07:15.108Z,22.42
2022-08-04T01:09:58.851Z,22.18
2022-08-04T01:12:43.522Z,22.22
2022-08-04T01:15:29.045Z,22.22
2022-08-04T01:18:01.853Z,22.13
2022-08-04T01:20:35.275Z,22.19
2022-08-04T01:23:16.501Z,22.28
2022-08-04T01:26:15.279Z,22.49
2022-08-04T01:29:12.972Z,22.27
2022-08-04T01:31:53.708Z,22.39
2022-08-04T01:34:23.049Z,22.26
2022-08-04T01:37:00.690Z,22.44
2022-08-04T01:39:42.237Z,22.23
2022-08-04T01:42:11.166Z,22.31
2022-08-04T01:44:41.750Z,22.30
2022-08-04T01:47:09.903Z,22.28
2022-08-04T01:49:40.691Z,22.65
2022-08-04T01:52:10.398Z,23.01
2022-08-04T01:54:42.451Z,23.16
2022-08-04T01:57:38.879Z,23.13
2022-08-04T01:59:59.898Z,23.30
2022-08-04T02:02:27.359Z,22.71
2022-08-04T02:04:54.313Z,22.52
2022-08-04T02:07:27.043Z,22.41
2022-08-04T02:10:07.674Z,22.28
2022-08-04T02:12:34.463Z,22.20
2022-08-04T02:15:33.692Z,22.03
2022-08-04T02:18:09.321Z,22.26
2022-08-04T02:20:44.312Z,22.26
2022-08-04T02:23:15.977Z,22.21
2022-08-04T02:25:47.915Z,22.31
2022-08-04T02:28:33.256Z,22.33
2022-08-04T02:31:14.229Z,22.40
2022-08-04T02:33:43.883Z,22.35
2022-08-04T02:36:29.658Z,22.08
2022-08-04T02:39:00.104Z,22.10
2022-08-04T02:41:28.933Z,22.33
2022-08-04T02:43:59.139Z,22.24
2022-08-04T02:46:26.436Z,22.33
2022-08-04T02:48:54.544Z,22.35
2022-08-04T02:51:34.847Z,22.40
2022-08-04T02:54:05.031Z,22.40
2022-08-04T02:56:38.769Z,22.34
2022-08-04T02:59:09.530Z,22.34
2022-08-04T03:01:37.323Z,22.35
2022-08-04T03:04:10.360Z,22.27
2022-08-04T03:07:14.397Z,22.30
2022-08-04T03:09:45.615Z,22.22
2022-08-04T03:12:49.898Z,22.10
2022-08-04T03:15:42.836Z,22.33
2022-08-04T03:18:24.829Z,22.40
2022-08-04T03:21:03.933Z,22.30
2022-08-04T03:24:01.531Z,22.25
2022-08-04T03:27:02.232Z,22.32
2022-08-04T03:29:46.141Z,22.14
2022-08-04T03:32:42.597Z,22.18
2022-08-04T03:35:54.329Z,22.26
2022-08-04T03:38:36.330Z,22.33
2022-08-04T03:41:09.179Z,22.38
2022-08-04T03:44:18.005Z,22.21
2022-08-04T03:46:55.935Z,22.35
2022-08-04T03:49:57.561Z,22.23
2022-08-04T03:53:10.941Z,22.30
2022-08-04T03:56:02.994Z,22.37
2022-08-04T03:58:51.390Z,22.33
2022-08-04T04:01:57.837Z,22.35
2022-08-04T04:04:58.388Z,22.26
2022-08-04T04:07:35.807Z,22.21
2022-08-04T04:10:25.918Z,22.29
2022-08-04T04:13:20.082Z,22.27
2022-08-04T04:16:06.605Z,22.18
2022-08-04T04:18:51.425Z,22.23
2022-08-04T04:21:29.345Z,22.30
2022-08-04T04:24:14.607Z,22.32
2022-08-04T04:26:56.668Z,22.44
2022-08-04T04:29:49.758Z,22.52
2022-08-04T04:32:32.190Z,22.52
2022-08-04T04:35:24.140Z,22.48
2022-08-04T04:38:35.413Z,22.57
2022-08-04T04:41:35.787Z,22.69
2022-08-04T04:44:36.485Z,22.65
2022-08-04T04:48:07.703Z,22.69
2022-08-04T04:50:15.979Z,22.81
2022-08-04T04:53:11.696Z,22.79
2022-08-04T04:55:48.223Z,22.85
2022-08-04T04:58:18.926Z,22.85
2022-08-04T05:00:45.710Z,23.02
2022-08-04T05:03:33.653Z,23.09
2022-08-04T05:06:07.857Z,23.23
2022-08-04T05:09:16.901Z,23.36
2022-08-04T05:12:02.415Z,23.59
2022-08-04T05:14:41.425Z,23.18
2022-08-04T05:17:26.313Z,23.41
2022-08-04T05:20:16.970Z,23.54
2022-08-04T05:22:52.727Z,23.59
2022-08-04T05:25:24.978Z,23.61
2022-08-04T05:28:02.548Z,23.62
2022-08-04T05:30:34.479Z,23.76
2022-08-04T05:33:11.277Z,23.76
2022-08-04T05:36:16.847Z,23.84
2022-08-04T05:38:37.713Z,24.03
2022-08-04T05:41:05.790Z,24.20
2022-08-04T05:43:34.717Z,24.18
2022-08-04T05:46:02.733Z,24.32
2022-08-04T05:48:32.762Z,24.40
2022-08-04T05:51:02.073Z,24.27
2022-08-04T05:53:30.450Z,24.03
2022-08-04T05:55:59.944Z,24.30
2022-08-04T05:58:30.973Z,24.46
2022-08-04T06:01:02.202Z,24.45
2022-08-04T06:03:34.971Z,24.48
2022-08-04T06:06:03.489Z,24.56
2022-08-04T06:08:31.510Z,24.59
2022-08-04T06:11:03.862Z,24.45
2022-08-04T06:13:49.609Z,24.62
2022-08-04T06:16:29.029Z,24.82
2022-08-04T06:20:03.109Z,24.45
2022-08-04T06:21:51.053Z,24.72
2022-08-04T06:24:20.578Z,24.91
2022-08-04T06:26:50.205Z,24.91
2022-08-04T06:29:30.712Z,24.86
2022-08-04T06:32:28.797Z,24.90
2022-08-04T06:34:50.354Z,24.84
2022-08-04T06:37:41.044Z,25.48
2022-08-04T06:40:30.063Z,25.74
2022-08-04T06:42:56.431Z,25.61
2022-08-04T06:45:24.780Z,25.81
2022-08-04T06:47:53.065Z,25.87
2022-08-04T06:51:31.257Z,25.80
2022-08-04T06:53:07.384Z,25.95
2022-08-04T06:55:34.817Z,25.71
2022-08-04T06:58:03.557Z,25.90
2022-08-04T07:00:33.686Z,25.96
2022-08-04T07:03:01.108Z,26.18
2022-08-04T07:05:29.001Z,26.23
2022-08-04T07:07:58.416Z,26.29
2022-08-04T07:10:28.102Z,26.51
2022-08-04T07:13:00.181Z,26.68
2022-08-04T07:15:28.310Z,26.64
2022-08-04T07:18:00.195Z,26.45
2022-08-04T07:20:35.066Z,26.73
2022-08-04T07:23:05.730Z,26.84
2022-08-04T07:25:59.599Z,26.47
2022-08-04T07:28:24.211Z,26.94
2022-08-04T07:30:52.675Z,27.14
2022-08-04T07:33:19.868Z,27.01
2022-08-04T07:36:09.440Z,27.44
2022-08-04T07:38:48.122Z,27.42
2022-08-04T07:41:37.426Z,27.64
2022-08-04T07:44:05.242Z,27.88
2022-08-04T07:46:32.319Z,27.77
2022-08-04T07:49:03.726Z,28.01
2022-08-04T07:51:31.534Z,28.11
2022-08-04T07:54:00.361Z,28.43
2022-08-04T07:56:28.463Z,28.46
2022-08-04T07:58:56.377Z,28.29
2022-08-04T08:01:25.159Z,28.53
2022-08-04T08:03:55.860Z,28.68
2022-08-04T08:06:32.455Z,28.24
2022-08-04T08:09:12.342Z,28.52
2022-08-04T08:12:38.285Z,28.79
2022-08-04T08:14:30.741Z,28.60
2022-08-04T08:17:00.330Z,28.43
2022-08-04T08:19:27.145Z,28.47
2022-08-04T08:21:59.457Z,28.92
2022-08-04T08:24:31.600Z,29.26
2022-08-04T08:27:00.455Z,29.42
2022-08-04T08:29:29.826Z,29.13
2022-08-04T08:32:01.398Z,29.29
2022-08-04T08:34:32.519Z,29.42
2022-08-04T08:37:10.442Z,28.81
2022-08-04T08:39:48.681Z,28.96
2022-08-04T08:42:30.972Z,28.93
2022-08-04T08:45:00.805Z,28.94
2022-08-04T08:48:04.831Z,29.30
2022-08-04T08:50:59.279Z,29.49
2022-08-04T08:53:28.772Z,29.15
2022-08-04T08:56:10.834Z,29.25
2022-08-04T08:58:40.628Z,29.19
2022-08-04T09:01:24.581Z,29.28
2022-08-04T09:04:32.192Z,29.09
2022-08-04T09:07:21.774Z,28.89
2022-08-04T09:10:27.846Z,29.12
2022-08-04T09:13:03.019Z,29.09
2022-08-04T09:15:41.939Z,29.19
2022-08-04T09:18:24.020Z,29.32
2022-08-04T09:21:10.173Z,29.51
2022-08-04T09:24:35.175Z,29.59
2022-08-04T09:27:09.951Z,29.81
2022-08-04T09:29:43.530Z,29.51
2022-08-04T09:32:38.142Z,29.49
2022-08-04T09:36:01.551Z,29.50
2022-08-04T09:39:03.951Z,29.74
2022-08-04T09:41:49.233Z,29.97
2022-08-04T09:44:50.012Z,29.99
2022-08-04T09:47:23.895Z,30.45
2022-08-04T09:49:59.207Z,30.74
2022-08-04T09:52:49.545Z,30.38
2022-08-04T09:55:24.368Z,30.73
2022-08-04T09:58:22.854Z,30.59
2022-08-04T10:01:08.265Z,30.09
2022-08-04T10:03:39.130Z,30.64
2022-08-04T10:06:27.793Z,30.71
2022-08-04T10:09:12.234Z,30.82
2022-08-04T10:11:56.546Z,30.31
2022-08-04T10:14:32.973Z,30.47
2022-08-04T10:17:52.067Z,30.32
2022-08-04T10:20:55.324Z,30.49
2022-08-04T10:24:00.412Z,30.75
2022-08-04T10:26:30.498Z,30.75
2022-08-04T10:29:22.631Z,31.11
2022-08-04T10:31:59.175Z,30.95
2022-08-04T10:34:39.629Z,31.15
2022-08-04T10:37:59.430Z,30.96
2022-08-04T10:40:43.116Z,31.19
2022-08-04T10:43:29.860Z,31.35
2022-08-04T10:46:03.583Z,31.73
2022-08-04T10:48:57.106Z,31.35
2022-08-04T10:51:58.251Z,31.36
2022-08-04T10:54:51.654Z,31.15
2022-08-04T10:57:26.172Z,31.18
2022-08-04T11:00:08.051Z,30.90
2022-08-04T11:02:41.766Z,31.23
2022-08-04T11:05:44.218Z,31.46
2022-08-04T11:08:40.219Z,31.00
2022-08-04T11:11:15.118Z,31.03
2022-08-04T11:13:52.156Z,31.27
2022-08-04T11:16:27.706Z,30.93
2022-08-04T11:19:18.803Z,30.51
2022-08-04T11:22:07.730Z,30.10
2022-08-04T11:24:52.719Z,30.37
2022-08-04T11:27:52.781Z,30.35
2022-08-04T11:30:20.396Z,30.30
2022-08-04T11:33:07.546Z,30.38
2022-08-04T11:35:42.486Z,30.37
2022-08-04T11:38:54.374Z,30.54
2022-08-04T11:41:37.865Z,30.78
2022-08-04T11:44:11.963Z,30.65
2022-08-04T11:46:47.565Z,30.59
2022-08-04T11:49:32.306Z,30.13
2022-08-04T11:52:21.818Z,30.24
2022-08-04T11:54:52.425Z,30.71
2022-08-04T11:57:25.625Z,29.91
2022-08-04T12:00:07.594Z,29.89
2022-08-04T12:03:06.511Z,30.51
2022-08-04T12:05:37.781Z,30.48
2022-08-04T12:08:08.155Z,30.38
2022-08-04T12:11:06.190Z,30.23
2022-08-04T12:14:02.030Z,30.44
2022-08-04T12:16:47.096Z,29.99
2022-08-04T12:19:32.462Z,29.75
2022-08-04T12:22:21.304Z,29.83
2022-08-04T12:25:04.106Z,29.58
2022-08-04T12:27:44.467Z,29.25
2022-08-04T12:30:58.601Z,29.37
2022-08-04T12:33:24.409Z,29.25
2022-08-04T12:36:33.496Z,29.52
2022-08-04T12:39:09.211Z,29.75
2022-08-04T12:41:42.341Z,29.85
2022-08-04T12:44:33.437Z,29.24
2022-08-04T12:47:27.690Z,29.56
2022-08-04T12:50:00.716Z,28.91
2022-08-04T12:55:19.144Z,28.55
2022-08-04T12:57:47.739Z,28.58
2022-08-04T13:00:29.397Z,28.29
2022-08-04T13:03:03.530Z,28.21
2022-08-04T13:05:31.911Z,28.43
2022-08-04T13:08:01.221Z,28.58
2022-08-04T13:10:30.106Z,29.02
2022-08-04T13:13:00.242Z,29.09
2022-08-04T13:15:28.462Z,29.29
2022-08-04T13:18:03.017Z,28.93
2022-08-04T13:20:33.671Z,29.03
2022-08-04T13:23:08.850Z,29.29
2022-08-04T13:26:43.616Z,28.99
2022-08-04T13:28:29.365Z,28.71
2022-08-04T13:31:00.386Z,28.77
2022-08-04T13:33:36.413Z,28.90
2022-08-04T13:36:05.371Z,29.09
2022-08-04T13:38:33.918Z,29.08
2022-08-04T13:41:05.177Z,30.03
2022-08-04T13:44:17.660Z,29.30
2022-08-04T13:46:50.788Z,30.23
2022-08-04T13:49:54.228Z,30.15
2022-08-04T13:52:10.711Z,30.62
2022-08-04T13:54:45.910Z,30.30
2022-08-04T13:57:23.931Z,31.31
2022-08-04T13:59:53.772Z,31.07
2022-08-04T14:02:34.385Z,31.64
2022-08-04T14:05:18.444Z,31.01
2022-08-04T14:07:50.912Z,31.46
2022-08-04T14:10:17.991Z,30.74
2022-08-04T14:12:47.658Z,30.42
2022-08-04T14:16:01.408Z,30.89
2022-08-04T14:18:32.579Z,30.57
2022-08-04T14:21:14.469Z,30.00
2022-08-04T14:23:51.091Z,30.70
2022-08-04T14:26:31.357Z,30.38
2022-08-04T14:29:27.149Z,30.53
2022-08-04T14:32:04.446Z,30.33
2022-08-04T14:34:41.526Z,30.06
2022-08-04T14:37:16.782Z,30.08
2022-08-04T14:40:08.963Z,30.48
2022-08-04T14:42:44.508Z,30.28
2022-08-04T14:45:54.086Z,30.40
2022-08-04T14:48:22.913Z,30.00
2022-08-04T14:50:51.072Z,29.79
2022-08-04T14:53:19.087Z,30.82
2022-08-04T14:55:48.892Z,30.05
2022-08-04T14:58:34.925Z,29.76
2022-08-04T15:01:11.015Z,29.68
2022-08-04T15:03:49.932Z,29.74
2022-08-04T15:06:22.725Z,30.03
2022-08-04T15:08:52.346Z,30.08
2022-08-04T15:11:23.260Z,29.99
2022-08-04T15:13:52.447Z,30.27
2022-08-04T15:16:20.161Z,30.66
2022-08-04T15:18:49.161Z,30.12
2022-08-04T15:21:17.355Z,29.86
2022-08-04T15:23:44.347Z,29.67
2022-08-04T15:26:19.635Z,30.16
2022-08-04T15:28:51.709Z,29.46
2022-08-04T15:32:07.329Z,29.82
2022-08-04T15:34:09.764Z,30.20
2022-08-04T15:36:43.422Z,29.40
2022-08-04T15:39:16.615Z,29.08
2022-08-04T15:42:15.000Z,28.83
2022-08-04T15:45:12.676Z,29.10
2022-08-04T15:47:41.142Z,29.50
2022-08-04T15:50:13.695Z,29.09
2022-08-04T15:53:10.857Z,29.43
2022-08-04T15:55:44.063Z,29.77
2022-08-04T15:58:16.093Z,30.43
2022-08-04T16:00:54.045Z,30.35
2022-08-04T16:03:58.276Z,27.25
2022-08-04T16:06:23.047Z,28.16
2022-08-04T16:08:58.309Z,27.54
2022-08-04T16:11:31.425Z,27.43
2022-08-04T16:13:59.048Z,27.00
2022-08-04T16:16:30.377Z,25.77
2022-08-04T16:19:25.984Z,25.43
2022-08-04T16:22:04.257Z,25.70
2022-08-04T16:24:39.545Z,24.93
2022-08-04T16:27:08.359Z,24.89
2022-08-04T16:29:45.682Z,25.48
2022-08-04T16:32:21.421Z,25.34
2022-08-04T16:34:59.732Z,25.12
2022-08-04T16:37:34.398Z,25.51
2022-08-04T16:40:35.918Z,25.69
2022-08-04T16:43:29.530Z,24.94
2022-08-04T16:45:58.947Z,25.33
2022-08-04T16:48:34.587Z,24.25
2022-08-04T16:51:09.696Z,24.90
2022-08-04T16:53:52.460Z,24.14
2022-08-04T16:56:33.661Z,24.81
2022-08-04T16:59:12.452Z,24.19
2022-08-04T17:01:51.635Z,24.53
2022-08-04T17:04:27.929Z,23.97
2022-08-04T17:07:00.240Z,23.69
2022-08-04T17:09:28.868Z,23.89
2022-08-04T17:11:57.007Z,23.69
2022-08-04T17:14:25.886Z,23.52
2022-08-04T17:16:54.905Z,23.70
2022-08-04T17:19:26.093Z,23.59
2022-08-04T17:22:04.376Z,23.88
2022-08-04T17:24:38.314Z,24.76
2022-08-04T17:28:19.822Z,25.22
2022-08-04T17:29:54.409Z,25.32
2022-08-04T17:32:22.759Z,25.31
2022-08-04T17:34:54.418Z,24.92
2022-08-04T17:37:39.867Z,24.54
2022-08-04T17:44:03.362Z,26.10
2022-08-04T17:46:28.095Z,26.02
2022-08-04T17:49:19.773Z,25.18
2022-08-04T17:52:05.899Z,25.41
2022-08-04T17:54:38.836Z,25.82
2022-08-04T18:00:05.680Z,24.98
2022-08-04T18:02:36.179Z,25.73
2022-08-04T18:05:05.638Z,25.76
2022-08-04T18:08:40.856Z,25.30
2022-08-04T18:10:52.548Z,25.03
2022-08-04T18:13:25.081Z,24.91
2022-08-04T18:16:05.097Z,24.84
2022-08-04T18:18:32.206Z,24.80
2022-08-04T18:21:02.867Z,24.57
2022-08-04T18:23:32.790Z,24.62
2022-08-04T18:26:02.474Z,24.42
2022-08-04T18:28:30.763Z,24.40
2022-08-04T18:30:59.843Z,24.44
2022-08-04T18:33:40.677Z,24.42
2022-08-04T18:36:36.937Z,24.34
2022-08-04T18:38:59.082Z,24.26
2022-08-04T18:41:27.837Z,24.28
2022-08-04T18:46:52.470Z,23.36
2022-08-04T18:50:59.988Z,23.08
2022-08-04T18:52:12.935Z,23.22
2022-08-04T18:54:42.261Z,23.45
2022-08-04T18:57:24.465Z,23.76
2022-08-04T18:59:56.513Z,23.70
2022-08-04T19:02:26.434Z,23.64
2022-08-04T19:04:53.464Z,23.65
2022-08-04T19:07:33.724Z,23.66
2022-08-04T19:10:07.564Z,23.57
2022-08-04T19:12:53.622Z,23.61
2022-08-04T19:15:20.445Z,23.63
2022-08-04T19:18:01.440Z,23.40
2022-08-04T19:20:29.780Z,23.28
2022-08-04T19:24:26.239Z,23.28
2022-08-04T19:26:02.514Z,23.21
2022-08-04T19:28:35.153Z,23.17
2022-08-04T19:31:07.447Z,23.07
2022-08-04T19:33:58.302Z,23.01
2022-08-04T19:36:27.733Z,22.77
2022-08-04T19:42:04.807Z,22.54
2022-08-04T19:44:31.373Z,22.47
2022-08-04T19:47:00.784Z,22.63
2022-08-04T19:52:33.880Z,22.42
2022-08-04T19:55:09.827Z,22.29
2022-08-04T19:57:46.470Z,22.17
2022-08-04T20:00:33.146Z,22.24
2022-08-04T20:03:03.003Z,22.25
2022-08-04T20:05:54.835Z,22.23
2022-08-04T20:08:17.585Z,22.28
2022-08-04T20:10:51.557Z,22.26
2022-08-04T20:13:19.838Z,22.16
2022-08-04T20:15:57.531Z,22.13
2022-08-04T20:18:36.550Z,21.94
2022-08-04T20:21:22.657Z,22.13
2022-08-04T20:24:39.236Z,21.96
2022-08-04T20:26:48.763Z,21.78
2022-08-04T20:29:20.680Z,21.77
2022-08-04T20:32:05.633Z,21.67
2022-08-04T20:34:37.015Z,21.75
2022-08-04T20:37:03.923Z,21.66
2022-08-04T20:39:31.136Z,21.68
2022-08-04T20:41:58.740Z,21.51
2022-08-04T20:44:25.848Z,21.44
2022-08-04T20:46:53.234Z,21.47
2022-08-04T20:49:20.030Z,21.41
2022-08-04T20:51:48.725Z,21.38
2022-08-04T20:54:26.482Z,21.33
2022-08-04T20:56:53.572Z,21.33
2022-08-04T20:59:21.035Z,21.26
2022-08-04T21:01:49.506Z,21.41
2022-08-04T21:04:34.565Z,21.23
2022-08-04T21:07:09.812Z,21.29
2022-08-04T21:09:49.847Z,21.24
2022-08-04T21:12:27.323Z,20.96
2022-08-04T21:15:01.477Z,20.99
2022-08-04T21:17:59.629Z,20.98
2022-08-04T21:20:32.310Z,21.03
2022-08-04T21:23:01.695Z,20.99
2022-08-04T21:25:29.707Z,21.44
2022-08-04T21:27:59.016Z,21.80
2022-08-04T21:30:30.940Z,21.83
2022-08-04T21:32:59.750Z,21.83
2022-08-04T21:35:37.110Z,21.76
2022-08-04T21:38:16.340Z,21.89
2022-08-04T21:40:53.267Z,21.88
2022-08-04T21:43:23.601Z,21.81
2022-08-04T21:45:55.082Z,21.61
2022-08-04T21:48:27.600Z,21.64
2022-08-04T21:50:55.505Z,21.53
2022-08-04T21:53:24.440Z,21.55
2022-08-04T21:56:05.782Z,21.67
2022-08-04T21:58:37.672Z,21.61
2022-08-04T22:01:12.811Z,21.01
2022-08-04T22:03:52.350Z,20.80
2022-08-04T22:06:22.842Z,20.80
2022-08-04T22:08:56.476Z,21.07
2022-08-04T22:11:49.066Z,21.01
2022-08-04T22:14:17.265Z,21.14
2022-08-04T22:16:56.367Z,21.06
2022-08-04T22:19:39.646Z,20.94
2022-08-04T22:22:13.617Z,20.96
2022-08-04T22:24:53.722Z,21.02
2022-08-04T22:27:39.064Z,20.85
2022-08-04T22:30:13.362Z,20.89
2022-08-04T22:32:48.529Z,20.94
2022-08-04T22:35:30.897Z,20.66
2022-08-04T22:38:25.529Z,20.81
2022-08-04T22:41:00.265Z,20.84
2022-08-04T22:43:32.826Z,20.95
2022-08-04T22:46:03.674Z,20.93
2022-08-04T22:48:32.461Z,20.99
2022-08-04T22:51:00.720Z,20.93
2022-08-04T22:53:28.213Z,20.92
2022-08-04T22:56:06.905Z,20.71
2022-08-04T22:58:36.216Z,20.96
2022-08-04T23:01:08.800Z,21.04
2022-08-04T23:03:38.296Z,21.09
2022-08-04T23:06:11.072Z,21.04
2022-08-04T23:08:43.090Z,21.18
2022-08-04T23:11:13.697Z,21.17
2022-08-04T23:13:42.106Z,20.91
2022-08-04T23:16:09.923Z,21.03
2022-08-04T23:18:40.214Z,21.12
2022-08-04T23:21:10.438Z,21.16
2022-08-04T23:23:47.694Z,21.19
2022-08-04T23:26:27.299Z,21.21
2022-08-04T23:28:56.383Z,21.13
2022-08-04T23:31:24.685Z,21.10
2022-08-04T23:33:52.393Z,20.98
2022-08-04T23:36:29.705Z,21.07
2022-08-04T23:39:03.709Z,21.00
2022-08-04T23:41:54.701Z,21.38
2022-08-04T23:44:25.029Z,21.43
2022-08-04T23:47:04.466Z,21.65
2022-08-04T23:49:43.865Z,21.53
2022-08-04T23:52:28.295Z,21.58
2022-08-04T23:55:00.806Z,21.64
2022-08-04T23:58:02.375Z,21.83
